Copperas Cove, TX (76522)

9:24 PM CDT on August 03, 2015 (GMT -0500)
skyline | | Change Station
CLOSE
Current Station
Personal Weather Station
Location: Copperas Cove, TX
Elevation: 1250 ft
Nearby Weather Stations

Elev 1250 ft 31.12 °N, 97.94 °W | Updated 12 seconds ago

Clear
Clear
86.4 °F
Feels Like 86 °F
N
6.0
Wind Variable Wind from ESE
Gusts 8.0 mph

Today
High -- | Low -- °F
--% Chance of Precip.
Yesterday
High -- | Low -- °F
Precip. -- in
6:49 AM 8:25 PM
Waning Gibbous, 82% visible
Pressure 29.86 in
Visibility 9.0 miles
Clouds Clear
Heat Index 86 °F
Dew Point 61 °F
Humidity 42%
Rainfall 0.00 in
Snow Depth Not available.
UV 0 out of 12
Pollen 6.30 out of 12
Air Quality Not available.
Flu Activity Not available.
METAR KGRK 040158Z AUTO 13010KT 9SM CLR 31/15 A2989 RMK AO2 SLP109 T03140150

More Conditions Fewer Conditions

Pressure 29.86 in
Visibility 9.0 miles
Clouds Clear
Heat Index 86 °F
Dew Point 61 °F
Humidity 42%
Rainfall 0.00 in
Snow Depth Not available.
UV 0 out of 12
Pollen 6.30 out of 12
Air Quality Not available.
Flu Activity Not available.
METAR KGRK 040158Z AUTO 13010KT 9SM CLR 31/15 A2989 RMK AO2 SLP109 T03140150

More Conditions Fewer Conditions

10-Day Weather Forecast

×

Almanac

Astronomy

Aug. 03, 2015 Rise Set
Actual Time
Civil Twilight
Nautical Twilight
Astronomical Twilight
Moon
Length of Visible Light
Length of Day
Tomorrow will be .
, % of the Moon is Illuminated

Today's Extremes

State Highs State Lows

Community

WunderPhotos

Upload Photos

1,843,831 photos uploaded!

WunderBlogs® & News

Nearby

Air Quality

  Air Quality AQ Index Pollutant
Not available.

Snow Depth

Station Depth Elevation

Earthquake Activity

City Distance Mag. Time & Date
Minimum magnitude displayed is 2.5.

Coastal Water Temperatures

Place Temperature

Stations

Nearby Weather Stations

Station Location Temp. Windchill Dew Point Humidity Wind Precip. Elev Updated Type